createdAt,value
2023-03-03T00:07:37.937Z,24.55
2023-03-03T00:08:37.928Z,24.56
2023-03-03T00:25:58.126Z,24.54
2023-03-03T00:28:16.656Z,24.50
2023-03-03T00:29:17.259Z,24.51
2023-03-03T00:42:54.205Z,24.50
2023-03-03T00:45:13.563Z,24.50
2023-03-03T00:46:13.317Z,24.51
2023-03-03T00:47:13.218Z,24.48
2023-03-03T00:48:13.032Z,24.52
2023-03-03T00:49:12.896Z,24.52
2023-03-03T00:50:13.327Z,24.51
2023-03-03T00:51:12.971Z,24.52
2023-03-03T00:52:12.851Z,24.51
2023-03-03T00:53:12.963Z,24.51
2023-03-03T00:54:12.925Z,24.52
2023-03-03T00:55:13.904Z,24.54
2023-03-03T00:56:12.869Z,24.51
2023-03-03T00:57:12.794Z,24.52
2023-03-03T00:58:14.030Z,24.51
2023-03-03T00:59:12.936Z,24.54
2023-03-03T01:00:12.909Z,24.51
2023-03-03T01:01:13.032Z,24.54
2023-03-03T01:02:12.849Z,24.51
2023-03-03T01:03:12.930Z,24.52
2023-03-03T01:04:12.795Z,24.54
2023-03-03T01:05:12.912Z,24.54
2023-03-03T03:39:29.493Z,24.51
2023-03-03T03:40:29.304Z,24.52
2023-03-03T03:41:29.268Z,24.51
2023-03-03T03:42:29.248Z,24.51
2023-03-03T03:43:29.380Z,24.54
2023-03-03T03:44:29.432Z,24.55
2023-03-03T03:45:29.426Z,24.56
2023-03-03T03:46:29.508Z,24.56
2023-03-03T03:47:30.126Z,24.55
2023-03-03T03:48:29.548Z,24.56
2023-03-03T03:49:29.631Z,24.58
2023-03-03T03:50:29.602Z,24.58
2023-03-03T03:51:29.699Z,24.59
2023-03-03T03:52:29.710Z,24.61
2023-03-03T03:57:07.443Z,24.61
2023-03-03T03:58:07.824Z,24.63
2023-03-03T04:22:04.385Z,24.75
2023-03-03T04:23:04.080Z,24.76
2023-03-03T04:25:23.104Z,24.73
2023-03-03T04:26:24.128Z,24.76
2023-03-03T04:27:22.818Z,24.76
2023-03-03T04:51:42.622Z,24.71
2023-03-03T04:52:42.251Z,24.71
2023-03-03T04:55:01.011Z,24.62
2023-03-03T04:56:01.698Z,24.65
2023-03-03T04:57:01.030Z,24.66
2023-03-03T04:58:01.440Z,24.66
2023-03-03T04:59:01.573Z,24.66
2023-03-03T05:01:19.526Z,24.66
2023-03-03T05:02:20.789Z,24.68
2023-03-03T05:03:20.340Z,24.69
2023-03-03T05:04:19.577Z,24.69
2023-03-03T05:05:19.408Z,24.71
2023-03-03T05:06:19.334Z,24.72
2023-03-03T05:07:20.267Z,24.71
2023-03-03T05:08:19.457Z,24.72
2023-03-03T05:09:19.574Z,24.72
2023-03-03T05:10:20.093Z,24.73
2023-03-03T05:11:19.166Z,24.72
2023-03-03T05:12:19.193Z,24.72
2023-03-03T05:13:19.426Z,24.76
2023-03-03T05:14:19.157Z,24.73
2023-03-03T05:15:19.121Z,24.73
2023-03-03T05:16:20.366Z,24.73
2023-03-03T05:17:19.360Z,24.75
2023-03-03T05:18:19.087Z,24.75
2023-03-03T05:19:20.390Z,24.76
2023-03-03T05:20:20.069Z,24.76
2023-03-03T05:21:20.051Z,24.75
2023-03-03T05:51:48.700Z,24.58
2023-03-03T05:58:07.363Z,24.63
2023-03-03T05:59:06.750Z,24.69
2023-03-03T06:09:17.209Z,24.69
2023-03-03T06:10:16.429Z,24.71
2023-03-03T06:11:17.729Z,24.75
2023-03-03T06:14:55.218Z,24.11
2023-03-03T06:17:22.287Z,23.32
2023-03-03T06:34:14.602Z,22.16
2023-03-03T06:35:28.255Z,21.29
2023-03-03T06:41:52.664Z,18.91
2023-03-03T06:54:16.644Z,20.79
2023-03-03T06:55:14.332Z,21.11
2023-03-03T07:07:21.402Z,23.25
2023-03-03T07:09:45.509Z,23.45
2023-03-03T07:13:23.824Z,23.66
2023-03-03T07:14:23.708Z,23.73
2023-03-03T07:15:23.296Z,23.80
2023-03-03T07:17:42.360Z,23.87
2023-03-03T07:18:42.340Z,23.93
2023-03-03T07:19:42.133Z,24.00
2023-03-03T07:20:42.185Z,24.03
2023-03-03T07:21:42.254Z,24.08
2023-03-03T07:22:42.232Z,24.10
2023-03-03T07:23:42.264Z,24.14
2023-03-03T07:24:42.497Z,24.18
2023-03-03T07:25:42.176Z,24.21
2023-03-03T07:26:42.289Z,24.24
2023-03-03T07:27:42.371Z,24.24
2023-03-03T07:28:42.087Z,24.27
2023-03-03T07:29:42.102Z,24.28
2023-03-03T07:30:42.125Z,24.30
2023-03-03T07:31:43.527Z,24.34
2023-03-03T07:32:42.094Z,24.36
2023-03-03T07:33:42.096Z,24.38
2023-03-03T07:34:42.071Z,24.38
2023-03-03T07:35:42.345Z,24.38
2023-03-03T07:36:42.065Z,24.42
2023-03-03T07:37:42.038Z,24.44
2023-03-03T07:38:42.060Z,24.41
2023-03-03T07:39:42.037Z,24.41
2023-03-03T07:40:42.483Z,24.41
2023-03-03T07:41:42.102Z,24.45
2023-03-03T07:42:42.039Z,24.44
2023-03-03T07:43:41.982Z,24.45
2023-03-03T07:44:42.194Z,24.48
2023-03-03T07:45:42.079Z,24.50
2023-03-03T07:46:42.016Z,24.52
2023-03-03T07:47:42.029Z,24.50
2023-03-03T07:48:42.003Z,24.51
2023-03-03T07:49:42.142Z,24.51
2023-03-03T07:50:42.434Z,24.50
2023-03-03T07:51:43.381Z,24.52
2023-03-03T07:52:42.988Z,24.54
2023-03-03T07:53:42.063Z,24.54
2023-03-03T07:54:42.192Z,24.55
2023-03-03T07:55:42.485Z,24.55
2023-03-03T07:56:43.273Z,24.51
2023-03-03T07:57:42.176Z,24.55
2023-03-03T07:58:41.870Z,24.56
2023-03-03T07:59:42.161Z,24.54
2023-03-03T08:00:42.046Z,24.56
2023-03-03T08:03:01.493Z,24.52
2023-03-03T08:04:00.945Z,24.58
2023-03-03T08:05:03.307Z,24.59
2023-03-03T08:08:39.014Z,24.56
2023-03-03T08:21:08.323Z,24.61
2023-03-03T08:22:08.310Z,24.62
2023-03-03T08:23:08.936Z,24.61
2023-03-03T08:25:30.667Z,24.62
2023-03-03T08:29:16.852Z,24.59
2023-03-03T08:32:27.419Z,24.59
2023-03-03T08:48:24.869Z,24.38
2023-03-03T08:49:23.993Z,24.41
2023-03-03T08:50:24.232Z,24.48
2023-03-03T08:51:24.036Z,24.48
2023-03-03T08:52:23.867Z,24.51
2023-03-03T08:53:23.849Z,24.54
2023-03-03T08:54:23.848Z,24.55
2023-03-03T08:59:23.023Z,24.56
2023-03-03T09:06:29.181Z,24.62
2023-03-03T09:08:43.433Z,24.65
2023-03-03T09:28:28.541Z,24.79
2023-03-03T09:29:29.346Z,24.79
2023-03-03T09:31:27.996Z,24.76
2023-03-03T09:52:28.010Z,24.31
2023-03-03T10:27:39.728Z,24.82
2023-03-03T10:37:14.265Z,24.93
2023-03-03T10:38:14.364Z,24.94
2023-03-03T10:59:08.409Z,24.85
2023-03-03T11:18:13.200Z,25.20
2023-03-03T11:27:29.131Z,24.92
2023-03-03T11:28:29.457Z,24.89
2023-03-03T11:30:48.790Z,24.86
2023-03-03T11:31:48.005Z,24.89
2023-03-03T11:44:25.755Z,24.65
2023-03-03T12:19:10.278Z,24.83
2023-03-03T12:42:40.615Z,24.14
2023-03-03T12:43:39.499Z,24.18
2023-03-03T12:44:39.469Z,24.21
2023-03-03T12:45:40.026Z,24.30
2023-03-03T12:46:39.126Z,24.32
2023-03-03T12:47:39.116Z,24.39
2023-03-03T12:48:40.347Z,24.36
2023-03-03T12:50:58.455Z,24.39
2023-03-03T12:51:59.735Z,24.44
2023-03-03T12:52:58.188Z,24.45
2023-03-03T12:53:59.138Z,24.48
2023-03-03T12:56:58.063Z,24.55
2023-03-03T14:07:10.641Z,24.86
2023-03-03T14:08:11.572Z,24.90
2023-03-03T14:09:11.016Z,24.89
2023-03-03T14:10:10.125Z,24.90
2023-03-03T14:11:10.301Z,24.92
2023-03-03T14:12:10.451Z,24.90
2023-03-03T14:13:10.451Z,24.94
2023-03-03T14:14:10.363Z,24.93
2023-03-03T14:15:10.425Z,24.96
2023-03-03T14:16:10.459Z,25.02
2023-03-03T14:17:10.603Z,24.97
2023-03-03T14:18:10.521Z,24.96
2023-03-03T14:19:11.399Z,25.02
2023-03-03T14:20:10.501Z,24.99
2023-03-03T14:21:10.524Z,24.99
2023-03-03T14:22:10.437Z,25.02
2023-03-03T14:23:10.383Z,25.00
2023-03-03T14:24:11.477Z,25.02
2023-03-03T14:25:10.451Z,25.02
2023-03-03T14:26:10.574Z,25.03
2023-03-03T14:27:10.460Z,25.03
2023-03-03T14:28:10.486Z,25.03
2023-03-03T14:29:10.411Z,25.06
2023-03-03T14:30:10.471Z,25.05
2023-03-03T14:31:10.766Z,25.06
2023-03-03T14:32:11.629Z,25.07
2023-03-03T14:33:10.626Z,25.07
2023-03-03T14:34:11.649Z,25.07
2023-03-03T14:35:11.795Z,25.09
2023-03-03T14:36:10.793Z,25.10
2023-03-03T14:37:10.809Z,25.10
2023-03-03T14:38:10.746Z,25.10
2023-03-03T14:39:10.861Z,25.09
2023-03-03T14:40:10.944Z,25.09
2023-03-03T14:41:10.878Z,25.06
2023-03-03T14:42:10.939Z,25.03
2023-03-03T14:43:11.037Z,25.03
2023-03-03T14:44:10.958Z,25.05
2023-03-03T14:45:27.320Z,25.05
2023-03-03T14:46:11.958Z,25.02
2023-03-03T14:47:10.952Z,25.02
2023-03-03T14:48:10.840Z,25.02
2023-03-03T14:49:11.036Z,25.02
2023-03-03T14:50:11.851Z,25.00
2023-03-03T14:51:10.764Z,25.00
2023-03-03T14:52:10.844Z,25.03
2023-03-03T14:53:10.821Z,25.02
2023-03-03T14:54:10.790Z,25.00
2023-03-03T14:55:10.944Z,25.00
2023-03-03T14:56:11.805Z,25.03
2023-03-03T14:57:10.799Z,25.02
2023-03-03T14:58:12.775Z,25.03
2023-03-03T14:59:10.745Z,25.03
2023-03-03T15:00:10.752Z,25.03
2023-03-03T15:01:10.895Z,25.05
2023-03-03T15:02:11.059Z,25.05
2023-03-03T15:03:10.984Z,25.02
2023-03-03T15:04:10.878Z,25.00
2023-03-03T15:05:10.816Z,25.00
2023-03-03T15:06:11.798Z,25.00
2023-03-03T15:07:10.858Z,24.99
2023-03-03T15:08:10.758Z,24.99
2023-03-03T15:09:10.969Z,25.00
2023-03-03T15:10:10.791Z,24.99
2023-03-03T15:23:48.494Z,24.99
2023-03-03T15:24:48.436Z,25.00
2023-03-03T15:25:53.959Z,25.02
2023-03-03T15:41:11.788Z,24.97
2023-03-03T15:42:11.596Z,24.94
2023-03-03T15:43:11.572Z,24.96
2023-03-03T15:44:11.591Z,24.94
2023-03-03T15:45:11.684Z,24.93
2023-03-03T15:46:12.313Z,24.94
2023-03-03T15:47:11.705Z,24.96
2023-03-03T15:48:11.696Z,24.93
2023-03-03T18:17:48.803Z,24.75
2023-03-03T18:18:48.547Z,24.72
2023-03-03T19:33:52.306Z,24.20
2023-03-03T19:35:50.174Z,24.24
2023-03-03T19:36:50.212Z,24.24
2023-03-03T19:37:49.960Z,24.25
2023-03-03T20:47:03.359Z,24.65
2023-03-03T20:48:02.902Z,24.66
2023-03-03T20:49:02.956Z,24.68
2023-03-03T20:50:02.992Z,24.68
2023-03-03T20:51:03.127Z,24.66
2023-03-03T20:52:03.084Z,24.68
2023-03-03T20:53:03.081Z,24.66
2023-03-03T21:03:04.135Z,24.71
2023-03-03T21:05:23.075Z,24.68
2023-03-03T21:07:42.091Z,24.63
2023-03-03T21:10:00.671Z,24.63
2023-03-03T21:37:21.136Z,24.68
2023-03-03T21:38:20.864Z,24.69
2023-03-03T21:39:20.889Z,24.68
2023-03-03T21:40:21.169Z,24.68
2023-03-03T21:41:21.102Z,24.68
2023-03-03T21:42:20.965Z,24.69
2023-03-03T21:43:20.960Z,24.69
2023-03-03T21:44:21.061Z,24.69
2023-03-03T21:45:21.091Z,24.69
2023-03-03T21:46:21.153Z,24.68
2023-03-03T21:54:28.549Z,24.69
2023-03-03T22:00:05.728Z,24.66
2023-03-03T22:01:05.477Z,24.68
2023-03-03T22:03:38.423Z,24.69
2023-03-03T22:04:38.532Z,24.69
2023-03-03T22:20:10.773Z,24.68
2023-03-03T22:22:29.671Z,24.65
2023-03-03T22:24:48.769Z,24.63
2023-03-03T22:25:48.382Z,24.66
2023-03-03T22:26:49.457Z,24.68
2023-03-03T22:29:07.371Z,24.65
2023-03-03T22:30:21.505Z,24.66
2023-03-03T22:31:08.199Z,24.65
2023-03-03T22:49:26.934Z,24.72
2023-03-03T22:50:26.747Z,24.72
2023-03-03T23:43:53.107Z,24.81
2023-03-03T23:44:53.082Z,24.79
2023-03-03T23:45:53.107Z,24.79
2023-03-03T23:46:53.190Z,24.81
2023-03-03T23:47:53.117Z,24.81
2023-03-03T23:48:53.106Z,24.81
2023-03-03T23:49:53.145Z,24.78
2023-03-03T23:50:53.208Z,24.81
2023-03-03T23:51:53.166Z,24.79
2023-03-03T23:52:53.173Z,24.81
2023-03-03T23:53:53.243Z,24.79
2023-03-03T23:54:53.205Z,24.79
2023-03-03T23:55:53.208Z,24.79
2023-03-03T23:56:53.227Z,24.81
2023-03-03T23:57:53.261Z,24.79
2023-03-03T23:58:53.256Z,24.78
2023-03-03T23:59:53.303Z,24.79
